Edmore, Michigan
Current Conditions -  °F | °C
As of 7:55 AM on Monday 22 Dec 2014 (Local Time) from KAMN Reporting Station
Haze Haze  
Wind Chill: 20°   Ceiling: Unl
Heat Index: 26°   Visibility: 4mi
Dew Point: 25°   Wind: 5mph
Humidity: 96%   Direction: 100°E
Pressure: 30.08"   Gusts: NA
Location:  43.41°N, 85.04°W
Report Text: KAMN 221255Z AUTO 10004KT 4SM BR CLR M03/M04 A3008 RMK AO2 T10341040
Loading
Personal Weather Stations






























Interactive Weather Map New forecast layout! Learn more

10-Day Weather Forecast

Advertisements
Track Severe Weather on mobile